createdAt,value
2019-03-26T00:01:12.050Z,9.83
2019-03-26T00:03:39.287Z,11.23
2019-03-26T00:06:06.457Z,13.07
2019-03-26T00:08:33.773Z,10.57
2019-03-26T00:11:00.936Z,9.50
2019-03-26T00:13:28.175Z,17.37
2019-03-26T00:15:55.330Z,13.67
2019-03-26T00:18:22.662Z,13.30
2019-03-26T00:20:50.189Z,13.23
2019-03-26T00:23:17.316Z,11.67
2019-03-26T00:25:44.594Z,17.00
2019-03-26T00:28:11.750Z,14.37
2019-03-26T00:30:39.915Z,13.77
2019-03-26T00:33:07.204Z,12.50
2019-03-26T00:35:34.480Z,13.93
2019-03-26T00:38:01.688Z,13.63
2019-03-26T00:40:29.259Z,14.17
2019-03-26T00:42:56.486Z,13.60
2019-03-26T00:45:23.752Z,14.10
2019-03-26T00:47:50.916Z,12.00
2019-03-26T00:50:18.175Z,13.90
2019-03-26T00:52:45.524Z,12.80
2019-03-26T00:55:22.583Z,16.90
2019-03-26T00:57:42.339Z,14.30
2019-03-26T01:00:11.621Z,15.47
2019-03-26T01:02:38.811Z,16.93
2019-03-26T01:05:06.772Z,14.07
2019-03-26T01:07:33.989Z,12.87
2019-03-26T01:10:01.124Z,16.03
2019-03-26T01:12:31.094Z,12.20
2019-03-26T01:14:57.573Z,16.63
2019-03-26T01:17:24.980Z,12.57
2019-03-26T01:19:52.158Z,15.10
2019-03-26T01:22:19.536Z,16.70
2019-03-26T01:24:46.712Z,14.10
2019-03-26T01:27:14.061Z,14.93
2019-03-26T01:29:41.267Z,13.70
2019-03-26T01:32:08.480Z,17.30
2019-03-26T01:34:45.518Z,14.43
2019-03-26T01:37:04.825Z,16.17
2019-03-26T01:39:32.001Z,12.27
2019-03-26T01:41:59.415Z,15.87
2019-03-26T01:44:26.844Z,15.57
2019-03-26T01:46:54.016Z,14.30
2019-03-26T01:49:21.167Z,14.03
2019-03-26T01:51:48.340Z,18.20
2019-03-26T01:54:15.534Z,18.77
2019-03-26T01:56:42.706Z,15.17
2019-03-26T01:59:09.979Z,19.63
2019-03-26T02:01:37.128Z,17.43
2019-03-26T02:04:04.267Z,19.27
2019-03-26T02:06:31.452Z,17.77
2019-03-26T02:08:58.689Z,18.50
2019-03-26T02:11:25.869Z,19.20
2019-03-26T02:13:53.138Z,14.90
2019-03-26T02:16:20.268Z,17.60
2019-03-26T02:18:47.860Z,21.90
2019-03-26T02:21:15.037Z,13.97
2019-03-26T02:23:42.180Z,20.73
2019-03-26T02:26:09.344Z,16.57
2019-03-26T02:28:36.718Z,17.93
2019-03-26T02:31:04.004Z,16.40
2019-03-26T02:33:31.169Z,12.77
2019-03-26T02:35:58.369Z,18.23
2019-03-26T02:38:25.532Z,16.03
2019-03-26T02:40:52.810Z,16.47
2019-03-26T02:43:19.987Z,18.83
2019-03-26T02:45:47.171Z,12.90
2019-03-26T02:48:14.446Z,15.87
2019-03-26T02:50:41.737Z,16.53
2019-03-26T02:53:09.160Z,21.87
2019-03-26T02:55:36.990Z,16.70
2019-03-26T02:58:04.198Z,17.53
2019-03-26T03:00:31.554Z,18.63
2019-03-26T03:02:58.831Z,20.90
2019-03-26T03:05:35.096Z,14.53
2019-03-26T03:07:55.444Z,16.27
2019-03-26T03:10:22.781Z,20.30
2019-03-26T03:12:50.053Z,16.40
2019-03-26T03:15:17.338Z,16.50
2019-03-26T03:17:44.505Z,14.07
2019-03-26T03:20:12.115Z,19.03
2019-03-26T03:22:39.264Z,21.43
2019-03-26T03:25:06.946Z,13.90
2019-03-26T03:27:34.257Z,12.60
2019-03-26T03:30:01.441Z,14.17
2019-03-26T03:32:28.640Z,14.70
2019-03-26T03:34:55.795Z,17.37
2019-03-26T03:37:22.947Z,19.47
2019-03-26T03:39:50.305Z,12.13
2019-03-26T03:42:17.515Z,14.57
2019-03-26T03:44:45.001Z,12.37
2019-03-26T03:47:13.529Z,12.37
2019-03-26T03:49:40.841Z,13.10
2019-03-26T03:52:09.794Z,14.33
2019-03-26T03:54:40.760Z,17.40
2019-03-26T03:57:10.187Z,12.33
2019-03-26T03:59:38.755Z,10.63
2019-03-26T04:02:05.952Z,10.93
2019-03-26T04:04:33.280Z,10.87
2019-03-26T04:07:00.479Z,16.50
2019-03-26T04:09:27.666Z,9.40
2019-03-26T04:11:54.816Z,11.33
2019-03-26T04:14:22.033Z,12.03
2019-03-26T04:16:49.309Z,10.17
2019-03-26T04:19:16.520Z,11.60
2019-03-26T04:21:43.706Z,10.90
2019-03-26T04:24:11.175Z,11.20
2019-03-26T04:26:38.397Z,8.90
2019-03-26T04:29:05.884Z,9.60
2019-03-26T04:31:33.235Z,9.20
2019-03-26T04:34:00.845Z,8.47
2019-03-26T04:36:28.009Z,7.60
2019-03-26T04:38:55.215Z,11.97
2019-03-26T04:41:22.562Z,10.27
2019-03-26T04:43:49.709Z,13.20
2019-03-26T04:46:16.860Z,9.73
2019-03-26T04:48:44.075Z,13.80
2019-03-26T04:51:11.326Z,14.13
2019-03-26T04:53:38.497Z,12.00
2019-03-26T04:56:05.703Z,12.30
2019-03-26T04:58:32.865Z,13.20
2019-03-26T05:01:00.049Z,13.40
2019-03-26T05:03:27.540Z,10.90
2019-03-26T05:05:54.687Z,11.77
2019-03-26T05:08:21.939Z,11.83
2019-03-26T05:10:49.470Z,15.20
2019-03-26T05:13:16.793Z,12.40
2019-03-26T05:15:43.948Z,14.37
2019-03-26T05:18:11.153Z,14.60
2019-03-26T05:20:38.678Z,21.40
2019-03-26T05:23:05.908Z,16.50
2019-03-26T05:25:33.180Z,17.07
2019-03-26T05:28:00.470Z,21.43
2019-03-26T05:30:27.613Z,22.00
2019-03-26T05:32:54.861Z,22.17
2019-03-26T05:35:22.042Z,18.43
2019-03-26T05:37:49.257Z,19.97
2019-03-26T05:40:16.491Z,21.80
2019-03-26T05:42:44.700Z,16.60
2019-03-26T05:45:12.263Z,22.93
2019-03-26T05:47:39.747Z,18.67
2019-03-26T05:50:08.247Z,19.67
2019-03-26T05:52:36.226Z,28.03
2019-03-26T05:55:04.317Z,26.00
2019-03-26T05:57:31.599Z,32.53
2019-03-26T05:59:58.931Z,28.43
2019-03-26T06:02:26.213Z,25.13
2019-03-26T06:04:53.425Z,30.43
2019-03-26T06:07:20.600Z,24.47
2019-03-26T06:09:47.787Z,28.23
2019-03-26T06:12:14.976Z,28.73
2019-03-26T06:14:42.211Z,26.10
2019-03-26T06:17:09.388Z,23.60
2019-03-26T06:19:36.539Z,25.00
2019-03-26T06:22:03.741Z,22.23
2019-03-26T06:24:30.937Z,26.93
2019-03-26T06:26:58.196Z,24.00
2019-03-26T06:29:25.399Z,25.17
2019-03-26T06:31:53.728Z,28.53
2019-03-26T06:34:21.201Z,29.97
2019-03-26T06:36:48.444Z,22.27
2019-03-26T06:39:15.637Z,25.40
2019-03-26T06:41:42.793Z,22.23
2019-03-26T06:44:09.986Z,26.60
2019-03-26T06:46:37.275Z,22.80
2019-03-26T06:49:04.444Z,28.23
2019-03-26T06:51:31.591Z,23.93
2019-03-26T06:53:58.744Z,23.17
2019-03-26T06:56:25.932Z,21.03
2019-03-26T06:58:54.093Z,19.40
2019-03-26T07:01:21.388Z,20.10
2019-03-26T07:03:48.665Z,25.27
2019-03-26T07:06:16.243Z,21.40
2019-03-26T07:08:43.408Z,13.17
2019-03-26T07:11:10.668Z,20.13
2019-03-26T07:13:38.058Z,18.57
2019-03-26T07:16:05.281Z,16.50
2019-03-26T07:18:32.526Z,17.00
2019-03-26T07:20:59.988Z,14.00
2019-03-26T07:23:27.293Z,16.10
2019-03-26T07:25:54.587Z,15.70
2019-03-26T07:28:21.760Z,14.10
2019-03-26T07:30:49.093Z,17.90
2019-03-26T07:33:16.264Z,17.30
2019-03-26T07:35:43.631Z,18.17
2019-03-26T07:38:10.904Z,14.63
2019-03-26T07:40:38.066Z,13.73
2019-03-26T07:43:05.402Z,16.60
2019-03-26T07:45:33.216Z,14.70
2019-03-26T07:48:00.953Z,15.33
2019-03-26T07:50:28.365Z,17.93
2019-03-26T07:52:55.726Z,13.87
2019-03-26T07:55:23.011Z,18.60
2019-03-26T07:57:50.182Z,10.97
2019-03-26T08:00:21.761Z,13.40
2019-03-26T08:02:49.079Z,13.73
2019-03-26T08:05:29.031Z,14.87
2019-03-26T08:07:57.480Z,18.23
2019-03-26T08:10:14.392Z,12.93
2019-03-26T08:12:41.576Z,11.43
2019-03-26T08:15:09.696Z,15.37
2019-03-26T08:17:37.122Z,13.23
2019-03-26T08:20:05.206Z,12.60
2019-03-26T08:22:32.387Z,18.43
2019-03-26T08:25:00.004Z,15.87
2019-03-26T08:27:27.303Z,22.43
2019-03-26T08:29:54.601Z,13.90
2019-03-26T08:32:21.884Z,20.40
2019-03-26T08:34:50.770Z,13.43
2019-03-26T08:37:20.054Z,12.23
2019-03-26T08:39:47.361Z,11.30
2019-03-26T08:42:14.484Z,12.80
2019-03-26T08:44:41.752Z,16.17
2019-03-26T08:47:08.993Z,12.80
2019-03-26T08:49:36.183Z,20.57
2019-03-26T08:52:03.525Z,15.53
2019-03-26T08:54:40.859Z,14.77
2019-03-26T08:57:08.307Z,20.90
2019-03-26T08:59:35.481Z,12.70
2019-03-26T09:02:02.611Z,12.40
2019-03-26T09:04:29.866Z,17.83
2019-03-26T09:06:57.183Z,10.70
2019-03-26T09:09:26.385Z,10.07
2019-03-26T09:11:54.006Z,9.70
2019-03-26T09:14:21.197Z,10.73
2019-03-26T09:16:48.432Z,10.17
2019-03-26T09:19:15.725Z,12.73
2019-03-26T09:21:42.931Z,15.03
2019-03-26T09:24:10.064Z,11.43
2019-03-26T09:26:37.220Z,12.93
2019-03-26T09:29:04.600Z,19.47
2019-03-26T09:31:31.739Z,6.40
2019-03-26T09:33:58.978Z,7.43
2019-03-26T09:36:26.445Z,13.57
2019-03-26T09:38:53.830Z,8.83
2019-03-26T09:41:20.988Z,16.40
2019-03-26T09:43:48.172Z,10.60
2019-03-26T09:46:15.385Z,10.63
2019-03-26T09:48:42.758Z,9.37
2019-03-26T09:51:10.981Z,9.83
2019-03-26T09:53:38.333Z,4.83
2019-03-26T09:56:05.527Z,7.90
2019-03-26T09:58:32.697Z,14.17
2019-03-26T10:01:00.073Z,7.30
2019-03-26T10:03:27.270Z,13.77
2019-03-26T10:05:54.504Z,13.80
2019-03-26T10:08:21.920Z,9.50
2019-03-26T10:10:49.098Z,12.07
2019-03-26T10:13:16.301Z,12.10
2019-03-26T10:15:43.628Z,11.03
2019-03-26T10:18:10.784Z,11.80
2019-03-26T10:20:38.033Z,15.43
2019-03-26T10:23:05.188Z,19.33
2019-03-26T10:25:32.448Z,10.23
2019-03-26T10:27:59.698Z,9.97
2019-03-26T10:30:39.474Z,12.90
2019-03-26T10:33:07.445Z,13.33
2019-03-26T10:35:34.592Z,7.63
2019-03-26T10:38:02.863Z,13.57
2019-03-26T10:40:31.027Z,7.27
2019-03-26T10:42:58.461Z,6.57
2019-03-26T10:45:25.661Z,8.60
2019-03-26T10:47:52.795Z,7.07
2019-03-26T10:50:20.021Z,10.67
2019-03-26T10:52:47.228Z,7.00
2019-03-26T10:55:14.367Z,15.10
2019-03-26T10:57:41.871Z,8.43
2019-03-26T11:00:09.349Z,14.53
2019-03-26T11:02:36.566Z,6.93
2019-03-26T11:05:04.241Z,11.20
2019-03-26T11:07:31.660Z,7.97
2019-03-26T11:09:58.844Z,16.87
2019-03-26T11:12:25.972Z,5.00
2019-03-26T11:14:53.169Z,8.30
2019-03-26T11:17:20.346Z,10.60
2019-03-26T11:19:47.530Z,7.03
2019-03-26T11:22:14.723Z,10.30
2019-03-26T11:24:41.944Z,9.47
2019-03-26T11:27:09.157Z,9.07
2019-03-26T11:29:36.359Z,6.67
2019-03-26T11:32:03.649Z,12.23
2019-03-26T11:34:30.923Z,14.20
2019-03-26T11:36:58.163Z,12.97
2019-03-26T11:39:32.558Z,12.17
2019-03-26T11:41:54.476Z,8.97
2019-03-26T11:44:21.835Z,6.10
2019-03-26T11:46:49.109Z,14.10
2019-03-26T11:49:16.356Z,6.33
2019-03-26T11:51:43.816Z,8.70
2019-03-26T11:54:11.064Z,7.90
2019-03-26T11:56:38.312Z,7.83
2019-03-26T11:59:05.567Z,7.40
2019-03-26T12:01:32.813Z,9.13
2019-03-26T12:04:00.155Z,10.80
2019-03-26T12:06:27.322Z,9.27
2019-03-26T12:08:54.507Z,10.57
2019-03-26T12:11:21.849Z,11.40
2019-03-26T12:13:49.805Z,14.10
2019-03-26T12:16:17.021Z,12.20
2019-03-26T12:18:46.667Z,13.70
2019-03-26T12:21:13.888Z,18.70
2019-03-26T12:23:41.184Z,11.97
2019-03-26T12:26:20.425Z,11.60
2019-03-26T12:28:47.752Z,12.70
2019-03-26T12:31:15.030Z,12.23
2019-03-26T12:33:42.349Z,11.30
2019-03-26T12:36:09.491Z,10.63
2019-03-26T12:38:36.779Z,12.00
2019-03-26T12:41:04.084Z,11.90
2019-03-26T12:43:31.218Z,14.43
2019-03-26T12:46:01.710Z,10.47
2019-03-26T12:48:27.736Z,23.57
2019-03-26T12:50:54.997Z,9.53
2019-03-26T12:53:22.489Z,7.70
2019-03-26T12:55:49.860Z,10.73
2019-03-26T12:58:30.472Z,10.73
2019-03-26T13:00:46.110Z,11.07
2019-03-26T13:03:13.431Z,9.60
2019-03-26T13:05:40.679Z,9.60
2019-03-26T13:08:07.860Z,12.07
2019-03-26T13:10:35.091Z,10.63
2019-03-26T13:13:02.516Z,7.50
2019-03-26T13:15:29.933Z,7.27
2019-03-26T13:17:57.430Z,5.20
2019-03-26T13:20:24.681Z,4.40
2019-03-26T13:22:51.952Z,6.90
2019-03-26T13:25:19.844Z,8.80
2019-03-26T13:27:47.355Z,4.30
2019-03-26T13:30:15.612Z,8.33
2019-03-26T13:32:42.826Z,6.87
2019-03-26T13:35:10.881Z,4.93
2019-03-26T13:37:38.172Z,5.93
2019-03-26T13:40:05.693Z,10.23
2019-03-26T13:42:32.932Z,5.47
2019-03-26T13:45:00.354Z,6.80
2019-03-26T13:47:27.937Z,2.70
2019-03-26T13:49:55.234Z,4.97
2019-03-26T13:52:22.417Z,5.03
2019-03-26T13:54:49.580Z,5.10
2019-03-26T13:57:16.877Z,5.13
2019-03-26T13:59:44.108Z,9.27
2019-03-26T14:02:11.401Z,3.93
2019-03-26T14:04:39.895Z,7.53
2019-03-26T14:07:07.385Z,4.83
2019-03-26T14:09:34.782Z,5.63
2019-03-26T14:12:04.036Z,5.90
2019-03-26T14:14:31.188Z,5.43
2019-03-26T14:16:58.410Z,6.03
2019-03-26T14:19:26.441Z,8.67
2019-03-26T14:21:55.576Z,4.77
2019-03-26T14:24:29.646Z,9.53
2019-03-26T14:26:56.792Z,4.67
2019-03-26T14:29:24.822Z,3.00
2019-03-26T14:31:52.293Z,10.40
2019-03-26T14:34:19.471Z,7.70
2019-03-26T14:36:46.762Z,6.27
2019-03-26T14:39:13.991Z,8.47
2019-03-26T14:41:41.196Z,5.13
2019-03-26T14:44:08.461Z,7.70
2019-03-26T14:46:35.639Z,6.63
2019-03-26T14:49:04.929Z,10.43
2019-03-26T14:51:32.191Z,7.77
2019-03-26T14:53:59.473Z,11.70
2019-03-26T14:56:26.742Z,6.73
2019-03-26T14:58:54.009Z,8.13
2019-03-26T15:01:21.291Z,13.37
2019-03-26T15:03:48.485Z,7.90
2019-03-26T15:06:15.657Z,15.60
2019-03-26T15:08:42.886Z,9.83
2019-03-26T15:11:10.071Z,11.10
2019-03-26T15:13:37.281Z,18.43
2019-03-26T15:16:04.507Z,11.10
2019-03-26T15:18:31.733Z,6.90
2019-03-26T15:20:58.899Z,9.10
2019-03-26T15:23:26.059Z,7.57
2019-03-26T15:25:53.202Z,7.67
2019-03-26T15:28:20.505Z,9.47
2019-03-26T15:30:47.704Z,6.40
2019-03-26T15:33:14.881Z,7.17
2019-03-26T15:35:42.191Z,11.23
2019-03-26T15:38:09.335Z,6.20
2019-03-26T15:40:36.613Z,5.73
2019-03-26T15:43:03.886Z,7.03
2019-03-26T15:45:31.253Z,3.17
2019-03-26T15:47:58.421Z,8.93
2019-03-26T15:50:37.013Z,9.30
2019-03-26T15:53:04.359Z,5.33
2019-03-26T15:55:31.602Z,5.70
2019-03-26T15:58:00.178Z,7.90
2019-03-26T16:00:29.098Z,6.87
2019-03-26T16:02:56.269Z,9.17
2019-03-26T16:05:23.479Z,6.43
2019-03-26T16:07:50.833Z,8.07
2019-03-26T16:10:17.974Z,11.27
2019-03-26T16:12:45.490Z,13.87
2019-03-26T16:15:13.016Z,8.87
2019-03-26T16:17:40.472Z,9.23
2019-03-26T16:20:08.081Z,6.33
2019-03-26T16:22:36.547Z,7.47
2019-03-26T16:25:04.200Z,7.60
2019-03-26T16:27:31.411Z,12.43
2019-03-26T16:29:58.549Z,14.37
2019-03-26T16:32:25.804Z,10.63
2019-03-26T16:34:53.297Z,12.10
2019-03-26T16:37:20.483Z,8.50
2019-03-26T16:39:48.037Z,4.57
2019-03-26T16:42:15.293Z,9.33
2019-03-26T16:44:42.426Z,7.97
2019-03-26T16:47:09.569Z,13.20
2019-03-26T16:49:36.733Z,7.83
2019-03-26T16:52:04.022Z,12.20
2019-03-26T16:54:31.209Z,12.07
2019-03-26T16:56:58.892Z,10.90
2019-03-26T16:59:26.370Z,8.17
2019-03-26T17:01:53.629Z,8.57
2019-03-26T17:04:20.849Z,11.10
2019-03-26T17:06:48.065Z,10.63
2019-03-26T17:09:15.338Z,9.70
2019-03-26T17:11:42.521Z,8.80
2019-03-26T17:14:09.741Z,10.50
2019-03-26T17:16:36.959Z,9.63
2019-03-26T17:19:04.420Z,10.17
2019-03-26T17:21:31.719Z,11.07
2019-03-26T17:23:58.997Z,15.90
2019-03-26T17:26:26.805Z,16.87
2019-03-26T17:28:54.471Z,7.07
2019-03-26T17:31:21.716Z,8.67
2019-03-26T17:33:49.219Z,7.93
2019-03-26T17:36:16.485Z,6.07
2019-03-26T17:38:43.673Z,9.47
2019-03-26T17:41:10.878Z,10.97
2019-03-26T17:43:38.162Z,10.30
2019-03-26T17:46:05.337Z,7.70
2019-03-26T17:48:32.604Z,11.53
2019-03-26T17:50:59.865Z,16.20
2019-03-26T17:53:27.190Z,9.90
2019-03-26T17:55:54.484Z,9.90
2019-03-26T17:58:21.761Z,8.50
2019-03-26T18:00:49.123Z,11.33
2019-03-26T18:03:26.382Z,10.53
2019-03-26T18:05:45.488Z,6.97
2019-03-26T18:08:12.669Z,13.17
2019-03-26T18:10:39.832Z,12.03
2019-03-26T18:13:07.140Z,10.13
2019-03-26T18:15:34.658Z,11.07
2019-03-26T18:18:02.165Z,9.40
2019-03-26T18:20:32.849Z,10.10
2019-03-26T18:22:58.680Z,6.33
2019-03-26T18:25:25.917Z,12.73
2019-03-26T18:27:53.267Z,12.27
2019-03-26T18:30:20.767Z,14.13
2019-03-26T18:32:48.073Z,8.40
2019-03-26T18:35:15.192Z,8.53
2019-03-26T18:37:42.459Z,14.77
2019-03-26T18:40:09.830Z,11.93
2019-03-26T18:42:43.812Z,10.13
2019-03-26T18:45:06.537Z,10.77
2019-03-26T18:47:33.737Z,10.47
2019-03-26T18:50:00.972Z,11.90
2019-03-26T18:52:29.164Z,17.80
2019-03-26T18:54:56.407Z,10.77
2019-03-26T18:57:23.653Z,9.60
2019-03-26T18:59:50.840Z,7.20
2019-03-26T19:02:18.040Z,11.10
2019-03-26T19:04:45.221Z,9.10
2019-03-26T19:07:12.488Z,9.80
2019-03-26T19:09:39.761Z,7.77
2019-03-26T19:12:06.920Z,13.50
2019-03-26T19:14:34.142Z,8.60
2019-03-26T19:17:01.381Z,9.53
2019-03-26T19:19:28.515Z,7.03
2019-03-26T19:21:55.768Z,7.67
2019-03-26T19:24:23.289Z,10.27
2019-03-26T19:26:50.501Z,8.97
2019-03-26T19:29:17.782Z,8.97
2019-03-26T19:31:44.960Z,12.17
2019-03-26T19:34:12.135Z,8.50
2019-03-26T19:36:39.380Z,10.60
2019-03-26T19:39:06.959Z,13.30
2019-03-26T19:41:34.308Z,9.47
2019-03-26T19:44:01.593Z,10.30
2019-03-26T19:46:28.799Z,10.00
2019-03-26T19:48:56.664Z,24.03
2019-03-26T19:51:24.861Z,12.57
2019-03-26T19:53:52.079Z,13.83
2019-03-26T19:56:19.251Z,11.67
2019-03-26T19:58:46.396Z,8.80
2019-03-26T20:01:13.607Z,9.10
2019-03-26T20:03:40.919Z,10.97
2019-03-26T20:06:13.278Z,11.57
2019-03-26T20:08:37.244Z,9.33
2019-03-26T20:11:04.400Z,13.77
2019-03-26T20:13:31.685Z,12.50
2019-03-26T20:15:58.924Z,11.27
2019-03-26T20:18:26.172Z,13.97
2019-03-26T20:20:53.419Z,10.77
2019-03-26T20:23:20.707Z,14.53
2019-03-26T20:25:48.292Z,12.63
2019-03-26T20:28:15.484Z,15.90
2019-03-26T20:30:42.714Z,11.07
2019-03-26T20:33:09.921Z,11.40
2019-03-26T20:35:37.055Z,12.00
2019-03-26T20:38:04.307Z,8.20
2019-03-26T20:40:31.443Z,10.13
2019-03-26T20:42:59.201Z,9.33
2019-03-26T20:45:26.357Z,17.33
2019-03-26T20:47:53.583Z,11.77
2019-03-26T20:50:21.460Z,10.83
2019-03-26T20:52:48.594Z,11.13
2019-03-26T20:55:20.644Z,11.87
2019-03-26T20:57:48.109Z,13.00
2019-03-26T21:00:25.476Z,14.07
2019-03-26T21:02:52.686Z,7.53
2019-03-26T21:05:22.827Z,16.80
2019-03-26T21:07:50.007Z,11.50
2019-03-26T21:10:17.188Z,9.00
2019-03-26T21:12:44.364Z,9.07
2019-03-26T21:15:11.959Z,13.13
2019-03-26T21:17:39.370Z,7.97
2019-03-26T21:20:08.102Z,6.93
2019-03-26T21:22:35.575Z,8.13
2019-03-26T21:25:03.462Z,5.97
2019-03-26T21:27:30.579Z,14.10
2019-03-26T21:30:10.087Z,14.40
2019-03-26T21:32:26.857Z,8.50
2019-03-26T21:34:54.261Z,10.57
2019-03-26T21:37:21.619Z,9.40
2019-03-26T21:39:48.751Z,11.30
2019-03-26T21:42:16.232Z,9.37
2019-03-26T21:44:43.388Z,11.13
2019-03-26T21:47:10.532Z,12.33
2019-03-26T21:49:37.712Z,6.37
2019-03-26T21:52:04.999Z,7.17
2019-03-26T21:54:32.227Z,36.50
2019-03-26T21:56:59.660Z,6.90
2019-03-26T21:59:26.875Z,9.80
2019-03-26T22:01:54.060Z,8.37
2019-03-26T22:04:21.244Z,8.70
2019-03-26T22:06:48.987Z,14.83
2019-03-26T22:09:16.158Z,12.10
2019-03-26T22:11:49.796Z,13.20
2019-03-26T22:14:18.021Z,8.20
2019-03-26T22:16:41.646Z,10.57
2019-03-26T22:19:08.799Z,9.10
2019-03-26T22:21:36.063Z,12.00
2019-03-26T22:24:03.229Z,9.50
2019-03-26T22:26:30.384Z,11.80
2019-03-26T22:28:57.540Z,10.40
2019-03-26T22:31:25.210Z,8.00
2019-03-26T22:33:52.487Z,10.73
2019-03-26T22:36:21.016Z,8.37
2019-03-26T22:38:48.160Z,16.00
2019-03-26T22:41:15.359Z,13.67
2019-03-26T22:43:42.715Z,10.17
2019-03-26T22:46:09.904Z,13.73
2019-03-26T22:48:37.059Z,7.13
2019-03-26T22:51:04.212Z,12.73
2019-03-26T22:53:31.365Z,12.43
2019-03-26T22:55:58.646Z,9.40
2019-03-26T22:58:25.915Z,12.37
2019-03-26T23:00:53.761Z,17.50
2019-03-26T23:03:21.337Z,10.57
2019-03-26T23:05:48.867Z,11.53
2019-03-26T23:08:17.669Z,12.93
2019-03-26T23:10:45.040Z,23.03
2019-03-26T23:13:12.602Z,22.33
2019-03-26T23:15:39.869Z,14.57
2019-03-26T23:18:07.099Z,17.43
2019-03-26T23:20:34.521Z,19.37
2019-03-26T23:23:01.808Z,22.63
2019-03-26T23:25:29.023Z,13.10
2019-03-26T23:27:56.312Z,20.43
2019-03-26T23:30:23.802Z,18.03
2019-03-26T23:32:51.026Z,25.50
2019-03-26T23:35:18.317Z,16.87
2019-03-26T23:37:45.463Z,13.03
2019-03-26T23:40:13.673Z,19.73
2019-03-26T23:42:41.008Z,15.73
2019-03-26T23:45:09.744Z,16.70
2019-03-26T23:47:36.888Z,19.63
2019-03-26T23:50:05.969Z,21.13
2019-03-26T23:52:33.145Z,20.47
2019-03-26T23:55:00.345Z,10.30
2019-03-26T23:57:27.622Z,18.53
2019-03-26T23:59:54.785Z,19.10
